x

Diamond Shoals (41025) Wave Buoy

12:50am - Sat 24th Jun 2017 All times are EDT. -4 hours from GMT.

  • Sig Wave height 6.9ft
  • Swell Direction
  • Peak Period 6s
  • Average Period 5s
  • Wind
    27mph, 31mph gusts
  • Sea Temp 80°f
  • Air Temp 81°f
  • Sea Pressure 1013.9mb
  • Diamond Shoals
  • Diamond Shoals

More Historic Weather Station data

Upgrade to MSW Pro to gain access to the past 30 days of data for over 8000 Wavebouys and Weather Stations around the globe.

Join Pro

Comparision Forecast

View Surf forecast
   
Sat 06/24 12:50am 7ft 6s 5s 27 31 mph 1013.9mb 80f 81f
Fri 06/23 11:50pm 6.5ft 6s 5s 27 34 mph 1014mb 80f 81f
10:50pm 6ft 6s 5s 27 31 mph 1014.2mb 80f 81f
9:50pm 5ft 5s 5s 25 29 mph 1014mb 80f 81f
8:50pm 5.5ft 5s 5s 25 29 mph 1013.5mb 80f 81f
7:50pm 5ft 5s 4s 25 29 mph 1013.5mb 80f 81f
6:50pm 4.5ft 5s 4s 25 29 mph 1013.6mb 80f 81f
5:50pm 4.5ft 4s 4s 25 27 mph 1013.8mb 81f 81f
4:50pm 3.5ft 4s 4s 22 29 mph 1014.1mb 81f 81f
3:50pm 3.5ft 8s 4s 22 27 mph 1014.6mb 81f 81f
2:50pm 3.5ft 8s 4s 22 25 mph 1015.2mb 81f 81f
1:50pm 3.5ft 8s 4s 20 22 mph 1015.8mb 81f 80f
12:50pm 3ft 9s 5s 20 22 mph 1016.2mb 80f 80f
11:50am 3ft 8s 5s 16 18 mph 1016.5mb 80f 80f
10:50am 3ft 9s 4s 13 16 mph 1016.9mb 80f 80f
8:50am 3ft 8s 5s 16 18 mph 1017mb 80f 80f
7:50am 3ft 8s 5s 16 18 mph 1016.8mb 80f 80f
6:50am 2.5ft 8s 4s 16 18 mph 1016.4mb 80f 80f
5:50am 3ft 8s 5s 13 16 mph 1016.3mb 80f 80f
4:50am 3ft 8s 4s 13 16 mph 1016.5mb 80f 80f
3:50am 3ft 8s 4s 13 16 mph 1016.8mb 80f 80f
2:50am 3ft 8s 5s 13 16 mph 1016.9mb 80f 80f
1:50am 3.5ft 8s 5s 16 18 mph 1017.2mb 80f 80f
12:50am 2.5ft 9s 5s 16 18 mph 1017.5mb 80f 80f
Thu 06/22 11:50pm 2.5ft 9s 5s 16 18 mph 1017.9mb 80f 80f
10:50pm 3ft 8s 5s 13 16 mph 1017.8mb 80f 80f
9:50pm 2.5ft 8s 5s 13 16 mph 1017.5mb 80f 80f
8:50pm 2.5ft 9s 4s 16 18 mph 1017.4mb 80f 80f
7:50pm 2.5ft 8s 4s 18 20 mph 1017.2mb 81f 80f
6:50pm 2.5ft 8s 5s 18 22 mph 1017.3mb 80f 80f
5:50pm 2.5ft 7s 5s 16 20 mph 1017.4mb 81f 80f
4:50pm 2.5ft 8s 5s 16 18 mph 1017.6mb 81f 80f
3:50pm 2ft 10s 5s 13 16 mph 1017.9mb 80f 80f
2:50pm 2.5ft 7s 5s 11 13 mph 1018.6mb 80f 80f
1:50pm 2.5ft 8s 5s 11 11 mph 1018.8mb 80f 80f
12:50pm 2.5ft 8s 5s 11 11 mph 1019.3mb 80f 79f
11:50am 2.5ft 7s 5s 11 13 mph 1019.3mb 79f 79f
10:50am 2.5ft 7s 5s 9 11 mph 1019.1mb 79f 78f
9:50am 2.5ft 6s 5s 9 9 mph 1019.1mb 79f 78f
8:50am 2.5ft 7s 4s 9 11 mph 1019.3mb 79f 78f
7:50am 2.5ft 7s 4s 11 11 mph 1019.1mb 79f 78f
6:50am 2.5ft 7s 4s 11 13 mph 1018.8mb 79f 79f
5:50am 2.5ft 7s 4s 13 16 mph 1018.5mb 79f 79f
4:50am 2.5ft 7s 4s 13 16 mph 1018.2mb 79f 79f
3:50am 2.5ft 3s 4s 16 18 mph 1018.1mb 80f 79f
2:50am 3ft 7s 4s 18 20 mph 1018.1mb 80f 79f
1:50am 3ft 4s 4s 18 20 mph 1018.3mb 80f 79f
12:50am 3.5ft 3s 4s 18 20 mph 1018.6mb 80f 79f
Wed 06/21 11:50pm 3ft 6s 4s 18 20 mph 1018.5mb 80f 80f
10:50pm 2.5ft 7s 4s 18 22 mph 1018.6mb 80f 80f
9:50pm 3ft 7s 4s 18 20 mph 1018.8mb 80f 80f
8:50pm 3ft 7s 4s 18 20 mph 1018.6mb 80f 79f
7:50pm 2.5ft 7s 4s 18 20 mph 1018.4mb 79f 79f
6:50pm 2.5ft 7s 4s 18 20 mph 1018mb 80f 78f
5:50pm 2.5ft 7s 4s 18 20 mph 1017.8mb 80f 78f
4:50pm 2.5ft 4s 4s 16 18 mph 1018.2mb 80f 77f
3:50pm 2.5ft 5s 4s 11 13 mph 1018.7mb 80f 77f
2:50pm 3.5ft 4s 4s 9 11 mph 1018.9mb 80f 77f
1:50pm 3.5ft 5s 4s 9 11 mph 1019.6mb 80f 76f
12:50pm 4ft 5s 4s 16 18 mph 1020.3mb 80f 76f
11:50am 4ft 5s 4s 18 20 mph 1020.1mb 80f 76f
10:50am 3.5ft 4s 4s 20 25 mph 1019.8mb 80f 76f
9:50am 3.5ft 4s 4s 20 25 mph 1019.4mb 80f 76f
8:50am 3.5ft 4s 4s 22 27 mph 1019.3mb 80f 75f
7:50am 3ft 7s 4s 25 29 mph 1018.7mb 80f 74f
6:50am 3.5ft 4s 4s 16 18 mph 1017.9mb 80f 78f
5:50am 3ft 14s 4s 22 27 mph 1017.7mb 80f 79f
4:50am 3.5ft 4s 4s 20 22 mph 1017.8mb 80f 80f
3:50am 3ft 14s 4s 18 20 mph 1017.9mb 80f 80f
2:50am 3.5ft 5s 4s 16 18 mph 1018.3mb 80f 80f
1:50am 3.5ft 5s 4s 16 18 mph 1018.8mb 80f 79f
12:50am 3.5ft 5s 5s 16 18 mph 1019.2mb 80f 79f
Tue 06/20 11:50pm 3.5ft 5s 4s 11 13 mph 1019.5mb 80f 79f
10:50pm 3.5ft 6s 4s 11 13 mph 1019.5mb 80f 78f
9:50pm 3ft 14s 4s 18 20 mph 1019.5mb 80f 78f
8:50pm 3.5ft 5s 4s 18 20 mph 1019.2mb 80f 80f
7:50pm 3.5ft 5s 4s 16 18 mph 1018.7mb 80f 79f
6:50pm 3.5ft 5s 4s 16 18 mph 1018.3mb 80f 79f
5:50pm 3.5ft 5s 4s 18 22 mph 1018mb 80f 80f
4:50pm 3.5ft 5s 4s 18 20 mph 1018.2mb 80f 79f
3:50pm 3.5ft 5s 4s 20 22 mph 1017.9mb 80f 79f
2:50pm 3.5ft 5s 4s 20 22 mph 1018.3mb 79f 79f
1:50pm 3.5ft 6s 4s 16 18 mph 1018.6mb 79f 78f
12:50pm 4ft 6s 4s 11 16 mph 1019.3mb 79f 77f
11:50am 4ft 6s 5s 18 22 mph 1019.4mb 79f 79f
10:50am 4.5ft 6s 4s 18 20 mph 1019.2mb 80f 80f
8:50am 4.5ft 5s 5s 18 20 mph 1018.6mb 80f 81f
7:50am 5ft 6s 5s 20 22 mph 1018.1mb 80f 81f
6:50am 5.5ft 6s 5s 20 25 mph 1017.5mb 80f 80f
5:50am 5ft 5s 4s 22 25 mph 1017.3mb 80f 81f